Time;durP1;ratioP1;P1;durP2;ratioP2;P2;SDS_P1;SDS_P2;PMS_P1;PMS_P2;Temp;Humidity;BMP_temperature;BMP_pressure;BME280_temperature;BME280_humidity;BME280_pressure;Samples;Min_cycle;Max_cycle;Signal;HPM_P1;HPM_P2
2023/04/05 00:01:32;;;;;;;11.90;5.70;;;3.20;99.90;;;;;;5062351;28;20070;-80
2023/04/05 00:03:59;;;;;;;14.52;5.78;;;3.20;99.90;;;;;;5079086;28;20067;-79
2023/04/05 00:06:30;;;;;;;10.32;6.20;;;3.90;99.90;;;;;;5053558;28;20044;-80
2023/04/05 00:09:01;;;;;;;11.50;5.85;;;4.70;99.90;;;;;;5071665;28;20078;-80
2023/04/05 00:11:31;;;;;;;10.43;5.90;;;3.10;99.90;;;;;;5095315;28;20036;-80
2023/04/05 00:13:59;;;;;;;9.50;5.82;;;3.00;99.90;;;;;;5078923;28;20391;-80
2023/04/05 00:16:26;;;;;;;10.52;6.05;;;2.90;99.90;;;;;;5095679;28;20079;-79
2023/04/05 00:18:53;;;;;;;12.88;5.63;;;2.90;99.90;;;;;;5078831;28;20560;-80
2023/04/05 00:21:22;;;;;;;10.85;5.85;;;2.90;99.90;;;;;;5078943;28;20277;-79
2023/04/05 00:23:50;;;;;;;10.60;5.63;;;2.80;99.90;;;;;;5078970;28;20495;-80
2023/04/05 00:26:16;;;;;;;12.00;5.68;;;3.30;99.90;;;;;;5093968;28;20514;-80
2023/04/05 00:28:42;;;;;;;10.95;6.20;;;3.50;99.90;;;;;;5078563;28;20055;-80
2023/04/05 00:31:08;;;;;;;14.38;6.32;;;2.70;99.90;;;;;;5054060;28;20063;-81
2023/04/05 00:33:34;;;;;;;12.05;5.75;;;2.90;99.90;;;;;;5061017;28;20051;-80
2023/04/05 00:36:16;;;;;;;10.10;5.97;;;3.90;99.90;;;;;;5061863;28;20088;-81
2023/04/05 00:38:43;;;;;;;11.50;6.45;;;2.70;99.90;;;;;;5095406;28;20039;-80
2023/04/05 00:41:10;;;;;;;11.52;6.28;;;2.60;99.90;;;;;;5077660;28;20036;-80
2023/04/05 00:43:36;;;;;;;13.32;5.88;;;2.60;99.90;;;;;;5078592;28;20510;-81
2023/04/05 00:46:04;;;;;;;14.38;6.28;;;2.60;99.90;;;;;;5082260;28;20043;-82
2023/04/05 00:48:29;;;;;;;12.70;5.95;;;2.60;99.90;;;;;;5112658;28;20044;-80
2023/04/05 00:50:57;;;;;;;12.50;6.07;;;2.50;99.90;;;;;;5085208;28;20407;-79
2023/04/05 00:53:25;;;;;;;11.38;5.90;;;2.50;99.90;;;;;;5095048;28;20134;-80
2023/04/05 00:55:52;;;;;;;14.65;6.72;;;3.20;99.90;;;;;;5083127;28;20054;-82
2023/04/05 00:58:21;;;;;;;14.05;6.38;;;3.60;99.90;;;;;;5077760;28;20040;-80
2023/04/05 01:01:05;;;;;;;11.95;6.07;;;2.90;99.90;;;;;;5062474;28;20032;-80
2023/04/05 01:03:34;;;;;;;10.57;6.70;;;2.40;99.90;;;;;;5078884;28;20035;-80
2023/04/05 01:06:19;;;;;;;12.18;6.20;;;2.30;99.90;;;;;;5082567;28;20075;-80
2023/04/05 01:09:05;;;;;;;12.52;6.30;;;3.80;99.90;;;;;;5098798;28;20074;-79
2023/04/05 01:11:32;;;;;;;11.15;6.03;;;2.30;99.90;;;;;;5097969;28;20039;-80
2023/04/05 01:13:59;;;;;;;11.80;6.00;;;2.20;99.90;;;;;;5078884;28;20043;-80
2023/04/05 01:16:26;;;;;;;11.85;6.22;;;3.90;99.90;;;;;;5079455;28;20125;-79
2023/04/05 01:18:55;;;;;;;14.18;6.30;;;2.60;99.90;;;;;;5081051;28;20388;-80
2023/04/05 01:21:33;;;;;;;12.30;6.65;;;2.10;99.90;;;;;;5083027;28;20043;-80
2023/04/05 01:24:37;;;;;;;12.82;6.88;;;2.10;99.90;;;;;;5098109;28;20476;-81
2023/04/05 01:27:13;;;;;;;12.70;6.50;;;2.10;99.90;;;;;;5081739;28;20573;-80
2023/04/05 01:30:17;;;;;;;13.60;6.38;;;3.10;99.90;;;;;;5081858;28;20036;-79
2023/04/05 01:32:58;;;;;;;12.65;6.18;;;2.00;99.90;;;;;;4979106;28;20053;-79
2023/04/05 01:35:43;;;;;;;11.85;6.05;;;2.00;99.90;;;;;;4998768;28;20049;-79
2023/04/05 01:38:15;;;;;;;13.27;5.93;;;2.00;99.90;;;;;;5048412;28;20047;-80
2023/04/05 01:40:41;;;;;;;11.65;6.47;;;1.90;99.90;;;;;;5099046;28;20040;-79
2023/04/05 01:43:17;;;;;;;12.32;6.18;;;1.90;99.90;;;;;;5064900;28;20051;-80
2023/04/05 01:45:44;;;;;;;13.07;6.43;;;2.60;99.90;;;;;;5081707;28;20062;-80
2023/04/05 01:48:10;;;;;;;12.82;6.85;;;2.40;99.90;;;;;;5081902;28;20508;-80
2023/04/05 01:50:36;;;;;;;11.98;6.53;;;3.00;99.90;;;;;;5081460;28;20036;-80
2023/04/05 01:53:02;;;;;;;14.27;6.15;;;3.00;99.90;;;;;;5081047;28;20554;-79
2023/04/05 01:55:28;;;;;;;11.75;6.50;;;1.70;99.90;;;;;;5098419;28;20097;-80
2023/04/05 01:57:55;;;;;;;12.88;6.53;;;1.70;99.90;;;;;;5064960;28;20035;-79
2023/04/05 02:00:21;;;;;;;11.88;6.13;;;1.70;99.90;;;;;;5083183;28;20046;-79
2023/04/05 02:02:47;;;;;;;14.77;6.47;;;3.70;99.90;;;;;;5096773;28;20041;-79
2023/04/05 02:05:13;;;;;;;12.45;6.80;;;1.70;99.90;;;;;;5054080;28;20131;-80
2023/04/05 02:07:38;;;;;;;14.27;6.50;;;1.60;99.90;;;;;;5060325;28;20046;-81
2023/04/05 02:10:05;;;;;;;10.07;6.57;;;1.50;99.90;;;;;;5054328;28;20118;-80
2023/04/05 02:12:30;;;;;;;11.45;6.60;;;1.50;99.90;;;;;;5071443;28;20172;-80
2023/04/05 02:14:57;;;;;;;11.85;6.32;;;1.50;99.90;;;;;;5075398;28;20118;-80
2023/04/05 02:17:23;;;;;;;12.60;6.75;;;1.40;99.90;;;;;;5069586;28;20035;-80
2023/04/05 02:19:51;;;;;;;11.75;6.93;;;1.40;99.90;;;;;;5054947;28;20032;-80
2023/04/05 02:22:17;;;;;;;13.43;6.38;;;1.40;99.90;;;;;;5081535;28;20040;-79
2023/04/05 02:24:43;;;;;;;13.30;6.70;;;3.00;99.90;;;;;;5066977;28;20038;-79
2023/04/05 02:27:09;;;;;;;12.82;6.57;;;1.40;99.90;;;;;;5077474;28;20119;-79
2023/04/05 02:29:35;;;;;;;11.32;6.35;;;1.30;99.90;;;;;;5055444;28;20423;-80
2023/04/05 02:32:01;;;;;;;13.10;6.72;;;1.30;99.90;;;;;;5047311;28;20099;-79
2023/04/05 02:34:27;;;;;;;11.98;6.82;;;2.70;99.90;;;;;;5053475;28;20098;-80
2023/04/05 02:36:53;;;;;;;12.98;6.43;;;1.60;99.90;;;;;;5076027;28;20055;-80
2023/04/05 02:39:19;;;;;;;14.15;6.82;;;1.40;99.90;;;;;;5060420;28;20043;-80
2023/04/05 02:41:45;;;;;;;13.25;6.80;;;1.70;99.90;;;;;;5040386;28;20040;-80
2023/04/05 02:44:12;;;;;;;12.35;6.80;;;2.70;99.90;;;;;;5053798;28;20035;-79
2023/04/05 02:46:38;;;;;;;11.60;6.38;;;1.30;99.90;;;;;;5060047;28;20492;-80
2023/04/05 02:49:04;;;;;;;13.15;6.82;;;1.00;99.90;;;;;;5026115;28;20131;-81
2023/04/05 02:51:29;;;;;;;10.48;5.78;;;1.00;99.90;;;;;;5059415;28;20043;-80
2023/04/05 02:53:55;;;;;;;17.27;7.15;;;2.20;99.90;;;;;;5060157;28;20381;-80
2023/04/05 02:56:20;;;;;;;13.07;6.93;;;1.90;99.90;;;;;;5060571;28;20040;-79
2023/04/05 02:58:48;;;;;;;11.98;6.63;;;0.90;99.90;;;;;;5060163;28;20043;-80
2023/04/05 03:01:16;;;;;;;13.10;6.75;;;0.90;99.90;;;;;;5043602;28;20040;-78
2023/04/05 03:03:42;;;;;;;13.25;6.95;;;1.40;99.90;;;;;;5040896;28;20044;-80
2023/04/05 03:06:12;;;;;;;14.38;6.90;;;1.60;99.90;;;;;;5057791;28;20101;-80
2023/04/05 03:08:42;;;;;;;12.98;6.90;;;0.80;99.90;;;;;;5059949;28;20502;-79
2023/04/05 03:11:09;;;;;;;17.52;7.65;;;0.80;99.90;;;;;;5060620;28;20075;-80
2023/04/05 03:13:35;;;;;;;13.70;7.63;;;1.10;99.90;;;;;;5060149;28;20032;-80
2023/04/05 03:16:04;;;;;;;11.80;6.72;;;0.80;99.90;;;;;;5071037;28;20051;-79
2023/04/05 03:18:31;;;;;;;14.95;7.15;;;0.80;99.90;;;;;;5049688;28;20039;-79
2023/04/05 03:20:57;;;;;;;15.20;7.38;;;0.70;99.90;;;;;;5049171;28;20477;-79
2023/04/05 03:23:28;;;;;;;13.55;7.43;;;1.80;99.90;;;;;;5058500;28;20072;-79
2023/04/05 03:25:59;;;;;;;15.10;7.78;;;1.60;99.90;;;;;;5076583;28;20115;-79
2023/04/05 03:28:25;;;;;;;14.65;6.90;;;0.70;99.90;;;;;;5076721;28;20036;-81
2023/04/05 03:30:51;;;;;;;13.30;7.95;;;1.20;99.90;;;;;;5042770;28;20404;-79
2023/04/05 03:33:18;;;;;;;13.85;7.88;;;0.60;99.90;;;;;;5048336;28;20059;-80
2023/04/05 03:35:44;;;;;;;13.63;7.57;;;0.60;99.90;;;;;;5067706;28;20028;-80
2023/04/05 03:38:10;;;;;;;15.50;7.30;;;0.60;99.90;;;;;;5057394;28;20507;-79
2023/04/05 03:40:37;;;;;;;12.48;7.75;;;2.00;99.90;;;;;;5075828;28;20395;-80
2023/04/05 03:43:02;;;;;;;16.40;7.90;;;0.50;99.90;;;;;;5052598;28;20076;-80
2023/04/05 03:45:28;;;;;;;13.50;8.18;;;1.90;99.90;;;;;;5075026;28;20040;-80
2023/04/05 03:47:55;;;;;;;14.75;7.85;;;-0.50;99.90;;;;;;5043291;28;20036;-79
2023/04/05 03:50:21;;;;;;;14.65;7.78;;;0.40;99.90;;;;;;5036659;28;20101;-80
2023/04/05 03:52:47;;;;;;;15.32;7.38;;;0.40;99.90;;;;;;5046358;28;20058;-80
2023/04/05 03:55:12;;;;;;;13.25;7.65;;;0.30;99.90;;;;;;5068719;28;20040;-80
2023/04/05 03:57:39;;;;;;;12.95;7.03;;;1.40;99.90;;;;;;5075603;28;20560;-80
2023/04/05 04:00:23;;;;;;;14.68;8.20;;;0.30;99.90;;;;;;5059107;28;20032;-80
2023/04/05 04:02:51;;;;;;;13.75;8.32;;;0.30;99.90;;;;;;5061646;28;20036;-81
2023/04/05 04:05:17;;;;;;;13.70;8.20;;;0.10;99.90;;;;;;5091626;28;20039;-80
2023/04/05 04:07:43;;;;;;;13.65;7.50;;;0.30;99.90;;;;;;5059210;28;20043;-81
2023/04/05 04:10:18;;;;;;;13.40;7.90;;;0.20;99.90;;;;;;5076097;28;20046;-81
2023/04/05 04:12:44;;;;;;;14.85;7.82;;;0.20;99.90;;;;;;5090081;28;20124;-80
2023/04/05 04:15:11;;;;;;;13.30;8.32;;;0.20;99.90;;;;;;5059358;28;20109;-80
2023/04/05 04:17:38;;;;;;;15.45;8.23;;;0.20;99.90;;;;;;5076008;28;20094;-80
2023/04/05 04:20:10;;;;;;;15.10;8.18;;;1.90;99.90;;;;;;5074337;28;20128;-80
2023/04/05 04:22:39;;;;;;;13.52;8.15;;;0.10;99.90;;;;;;5091492;28;20046;-81
2023/04/05 04:25:07;;;;;;;16.05;7.68;;;0.10;99.90;;;;;;5088315;28;20055;-80
2023/04/05 04:27:38;;;;;;;14.60;8.45;;;0.10;99.90;;;;;;5055796;28;20036;-80
2023/04/05 04:30:09;;;;;;;15.95;8.68;;;0.10;99.90;;;;;;5064893;28;20040;-79
2023/04/05 04:32:51;;;;;;;12.70;8.05;;;0.10;99.90;;;;;;5087841;28;20070;-80
2023/04/05 04:35:19;;;;;;;11.30;7.88;;;0.10;99.90;;;;;;5063925;28;20040;-80
2023/04/05 04:37:46;;;;;;;14.75;7.95;;;0.00;99.90;;;;;;5067016;28;20434;-80
2023/04/05 04:40:17;;;;;;;17.00;9.00;;;1.00;99.90;;;;;;5066448;28;20046;-79
2023/04/05 04:42:45;;;;;;;13.20;7.95;;;0.00;99.90;;;;;;5062328;28;20036;-80
2023/04/05 04:45:16;;;;;;;17.10;9.05;;;1.00;99.90;;;;;;5078552;28;20103;-80
2023/04/05 04:47:42;;;;;;;13.88;8.27;;;-0.10;99.90;;;;;;5095902;28;20040;-80
2023/04/05 04:50:09;;;;;;;14.05;8.38;;;-0.20;99.90;;;;;;5061730;28;20149;-80
2023/04/05 04:52:35;;;;;;;15.63;8.90;;;-0.20;99.90;;;;;;5058039;28;20040;-80
2023/04/05 04:55:04;;;;;;;16.80;9.00;;;0.70;99.90;;;;;;5042064;28;20096;-80
2023/04/05 04:57:30;;;;;;;17.67;8.80;;;0.40;99.90;;;;;;5045762;28;20104;-80
2023/04/05 04:59:56;;;;;;;14.68;8.18;;;-0.20;99.90;;;;;;5059120;28;20083;-80
2023/04/05 05:02:25;;;;;;;14.98;8.32;;;-0.20;99.90;;;;;;5058714;28;20518;-80
2023/04/05 05:04:51;;;;;;;17.35;9.35;;;-0.30;99.90;;;;;;5078846;28;20391;-80
2023/04/05 05:07:18;;;;;;;15.18;8.77;;;0.30;99.90;;;;;;5060931;28;20039;-80
2023/04/05 05:09:44;;;;;;;15.05;8.18;;;-0.30;99.90;;;;;;5078534;28;20040;-81
2023/04/05 05:12:10;;;;;;;17.10;8.40;;;1.30;99.90;;;;;;5062037;28;20048;-80
2023/04/05 05:14:36;;;;;;;17.33;8.43;;;1.40;99.90;;;;;;5074706;28;20412;-80
2023/04/05 05:17:04;;;;;;;15.45;8.30;;;-0.30;99.90;;;;;;5058328;28;20067;-80
2023/04/05 05:19:30;;;;;;;14.05;8.63;;;-0.30;99.90;;;;;;5062062;28;20479;-79
2023/04/05 05:21:56;;;;;;;20.88;8.65;;;0.10;99.90;;;;;;5095118;28;20047;-80
2023/04/05 05:24:22;;;;;;;17.35;9.02;;;0.30;99.90;;;;;;5058059;28;20036;-80
2023/04/05 05:26:47;;;;;;;15.77;8.60;;;-0.30;99.90;;;;;;5072451;28;20054;-80
2023/04/05 05:29:13;;;;;;;16.13;8.48;;;-0.30;99.90;;;;;;5065571;28;20048;-79
2023/04/05 05:31:39;;;;;;;15.63;8.60;;;-0.20;99.90;;;;;;5075989;28;20040;-81
2023/04/05 05:34:08;;;;;;;17.85;10.48;;;-0.30;99.90;;;;;;5057555;28;20503;-80
2023/04/05 05:36:34;;;;;;;17.45;9.40;;;-0.30;99.90;;;;;;5034879;28;20072;-81
2023/04/05 05:39:00;;;;;;;15.30;8.90;;;-0.20;99.90;;;;;;5058141;28;20070;-80
2023/04/05 05:41:26;;;;;;;19.42;9.55;;;-0.20;99.90;;;;;;5074571;28;20076;-80
2023/04/05 05:43:52;;;;;;;14.68;9.32;;;-0.20;99.90;;;;;;5063804;28;20097;-80
2023/04/05 05:46:19;;;;;;;16.80;8.85;;;1.60;99.90;;;;;;5089562;28;20058;-80
2023/04/05 05:48:45;;;;;;;17.83;9.65;;;-0.20;99.90;;;;;;5081119;28;20035;-81
2023/04/05 05:51:11;;;;;;;15.77;9.38;;;-0.10;99.90;;;;;;5078979;28;20422;-81
2023/04/05 05:53:37;;;;;;;16.98;9.65;;;-0.10;99.90;;;;;;5049425;28;20036;-79
2023/04/05 05:56:03;;;;;;;17.88;9.73;;;1.50;99.90;;;;;;5097788;28;20364;-80
2023/04/05 05:58:29;;;;;;;17.85;9.88;;;0.00;99.90;;;;;;5058597;28;20038;-80
2023/04/05 06:00:55;;;;;;;20.08;10.32;;;1.00;99.90;;;;;;5037528;28;20498;-79
2023/04/05 06:03:22;;;;;;;17.73;10.07;;;0.70;99.90;;;;;;5067524;28;20119;-79
2023/04/05 06:05:55;;;;;;;16.40;9.23;;;0.10;99.90;;;;;;5055675;28;20043;-78
2023/04/05 06:08:26;;;;;;;18.00;10.07;;;0.90;99.90;;;;;;5063637;28;20127;-79
2023/04/05 06:10:52;;;;;;;21.05;10.38;;;0.20;99.90;;;;;;5054501;28;20447;-79
2023/04/05 06:13:19;;;;;;;19.40;10.68;;;0.20;99.90;;;;;;5061017;28;20036;-79
2023/04/05 06:15:46;;;;;;;17.30;10.98;;;0.20;99.90;;;;;;5076385;28;20071;-78
2023/04/05 06:18:13;;;;;;;16.67;10.35;;;0.30;99.90;;;;;;5083578;28;20106;-79
2023/04/05 06:20:41;;;;;;;20.75;10.95;;;0.40;99.90;;;;;;5064959;28;20036;-80
2023/04/05 06:23:07;;;;;;;19.60;11.30;;;0.50;99.90;;;;;;5061030;28;20126;-80
2023/04/05 06:25:33;;;;;;;16.90;10.48;;;0.50;99.90;;;;;;5063965;28;20123;-80
2023/04/05 06:27:59;;;;;;;23.10;11.40;;;2.10;99.90;;;;;;5080274;28;20164;-81
2023/04/05 06:30:25;;;;;;;22.38;12.00;;;1.20;99.90;;;;;;5076670;28;20077;-81
2023/04/05 06:32:53;;;;;;;20.80;12.50;;;2.00;99.90;;;;;;5078730;28;20054;-81
2023/04/05 06:35:20;;;;;;;18.95;11.77;;;0.90;99.90;;;;;;5041251;28;20105;-81
2023/04/05 06:37:46;;;;;;;19.30;11.25;;;0.90;99.90;;;;;;5044711;28;20043;-81
2023/04/05 06:40:12;;;;;;;19.17;10.95;;;1.00;99.90;;;;;;5058374;28;20039;-82
2023/04/05 06:42:38;;;;;;;19.02;11.57;;;1.00;99.90;;;;;;5080850;28;20043;-81
2023/04/05 06:45:04;;;;;;;18.60;11.23;;;1.10;99.90;;;;;;5055151;28;20039;-80
2023/04/05 06:47:34;;;;;;;19.60;13.02;;;1.20;99.90;;;;;;5081032;28;20043;-80
2023/04/05 06:50:01;;;;;;;26.42;15.57;;;2.10;99.90;;;;;;5080749;28;20046;-81
2023/04/05 06:52:27;;;;;;;22.60;12.23;;;2.60;99.90;;;;;;5078624;28;20075;-80
2023/04/05 06:54:53;;;;;;;19.98;12.05;;;1.40;99.90;;;;;;5092017;28;20039;-80
2023/04/05 06:57:19;;;;;;;16.10;10.15;;;1.50;99.90;;;;;;5046509;28;20032;-79
2023/04/05 06:59:45;;;;;;;19.70;11.77;;;2.00;99.90;;;;;;5102194;28;20035;-80
2023/04/05 07:02:11;;;;;;;18.42;11.55;;;1.80;99.90;;;;;;5097570;28;20036;-80
2023/04/05 07:04:37;;;;;;;18.60;11.50;;;3.30;99.90;;;;;;5078332;28;20531;-79
2023/04/05 07:07:05;;;;;;;20.08;11.30;;;2.40;99.90;;;;;;5109457;28;20039;-79
2023/04/05 07:09:35;;;;;;;14.75;10.70;;;2.70;99.90;;;;;;5058296;28;20039;-79
2023/04/05 07:12:03;;;;;;;16.05;10.93;;;4.40;99.90;;;;;;5075624;28;20051;-79
2023/04/05 07:14:30;;;;;;;17.83;10.77;;;3.40;99.90;;;;;;5084700;28;20032;-80
2023/04/05 07:16:55;;;;;;;18.35;11.05;;;3.70;99.90;;;;;;5074499;28;20038;-79
2023/04/05 07:19:21;;;;;;;18.90;11.20;;;3.90;99.90;;;;;;5068616;28;20040;-79
2023/04/05 07:21:48;;;;;;;17.20;10.60;;;4.20;99.90;;;;;;5071821;28;20084;-80
2023/04/05 07:24:14;;;;;;;16.40;10.45;;;4.40;99.90;;;;;;5063115;28;20043;-80
2023/04/05 07:26:40;;;;;;;14.32;9.45;;;4.60;99.90;;;;;;5062931;28;20044;-79
2023/04/05 07:29:07;;;;;;;15.38;9.93;;;4.80;99.90;;;;;;5096700;28;20039;-79
2023/04/05 07:31:34;;;;;;;19.27;9.95;;;4.90;99.90;;;;;;5079466;28;20445;-78
2023/04/05 07:34:00;;;;;;;16.02;10.38;;;5.10;99.90;;;;;;5063351;28;20092;-80
2023/04/05 07:36:27;;;;;;;19.55;10.70;;;5.30;99.90;;;;;;5075072;28;20126;-80
2023/04/05 07:38:53;;;;;;;15.77;10.48;;;5.50;99.90;;;;;;5055305;28;20039;-79
2023/04/05 07:41:19;;;;;;;19.63;10.27;;;5.70;99.90;;;;;;5061827;28;20036;-79
2023/04/05 07:43:45;;;;;;;16.20;10.30;;;5.90;99.90;;;;;;5056958;28;20114;-80
2023/04/05 07:46:11;;;;;;;13.65;9.73;;;6.10;99.90;;;;;;5062437;28;20085;-78
2023/04/05 07:48:37;;;;;;;13.52;9.23;;;6.30;99.90;;;;;;5078221;28;20027;-78
2023/04/05 07:51:08;;;;;;;15.85;8.93;;;6.50;99.90;;;;;;5063260;28;20611;-78
2023/04/05 07:53:35;;;;;;;12.57;10.10;;;6.50;99.90;;;;;;5063171;28;20491;-79
2023/04/05 07:56:05;;;;;;;14.07;9.18;;;6.70;99.90;;;;;;5109576;28;20049;-79
2023/04/05 07:58:32;;;;;;;14.25;9.20;;;6.80;99.90;;;;;;5087456;28;20408;-79
2023/04/05 08:01:01;;;;;;;14.13;9.02;;;6.90;99.90;;;;;;5071539;28;20046;-80
2023/04/05 08:03:28;;;;;;;12.13;8.20;;;7.20;99.90;;;;;;5070298;28;20188;-80
2023/04/05 08:05:54;;;;;;;11.00;7.35;;;7.40;99.90;;;;;;5068904;28;20044;-80
2023/04/05 08:08:20;;;;;;;15.35;8.70;;;7.50;99.90;;;;;;5068468;28;20126;-80
2023/04/05 08:10:46;;;;;;;12.35;7.68;;;7.60;99.90;;;;;;5076774;28;20818;-79
2023/04/05 08:13:11;;;;;;;12.98;7.70;;;7.60;99.90;;;;;;5101995;28;20059;-79
2023/04/05 08:15:37;;;;;;;9.73;7.07;;;7.70;99.90;;;;;;5084343;28;20032;-79
2023/04/05 08:18:03;;;;;;;13.10;8.52;;;7.70;99.90;;;;;;5091637;28;20036;-80
2023/04/05 08:20:28;;;;;;;15.95;8.73;;;7.80;99.90;;;;;;5056983;28;20089;-80
2023/04/05 08:22:54;;;;;;;12.15;7.85;;;8.00;99.90;;;;;;5049935;28;20063;-79
2023/04/05 08:25:20;;;;;;;9.55;6.93;;;8.10;99.90;;;;;;5087717;28;20040;-80
2023/04/05 08:27:46;;;;;;;11.57;6.68;;;8.30;99.90;;;;;;5087368;28;20043;-80
2023/04/05 08:30:12;;;;;;;10.93;7.35;;;8.40;99.90;;;;;;5049954;28;20464;-81
2023/04/05 08:32:37;;;;;;;12.63;6.80;;;8.50;99.90;;;;;;5068062;28;20543;-80
2023/04/05 08:35:04;;;;;;;11.15;6.18;;;8.40;99.90;;;;;;5045992;28;20389;-81
2023/04/05 08:37:34;;;;;;;10.50;7.05;;;8.50;99.90;;;;;;5105521;28;20040;-80
2023/04/05 08:40:01;;;;;;;8.90;6.40;;;8.40;99.90;;;;;;5068431;28;20052;-80
2023/04/05 08:42:41;;;;;;;11.27;7.20;;;8.40;99.90;;;;;;5076551;28;20498;-80
2023/04/05 08:45:10;;;;;;;8.07;5.82;;;8.30;99.90;;;;;;5072824;28;20043;-80
2023/04/05 08:47:37;;;;;;;8.98;6.30;;;8.30;99.90;;;;;;5069805;28;20046;-81
2023/04/05 08:50:04;;;;;;;11.32;6.65;;;8.30;99.90;;;;;;5073648;28;20044;-81
2023/04/05 08:52:36;;;;;;;8.25;6.53;;;8.30;99.90;;;;;;5075553;28;20036;-79
2023/04/05 08:55:04;;;;;;;11.88;6.68;;;8.30;99.90;;;;;;5058822;28;20048;-81
2023/04/05 08:57:31;;;;;;;10.25;6.65;;;8.40;99.90;;;;;;5086701;28;20065;-79
2023/04/05 09:00:00;;;;;;;10.90;5.65;;;8.40;99.90;;;;;;5063575;28;20122;-79
2023/04/05 09:02:27;;;;;;;10.00;6.68;;;8.50;99.90;;;;;;5073049;28;20085;-80
2023/04/05 09:04:53;;;;;;;10.82;7.20;;;8.60;99.90;;;;;;5071176;28;20089;-80
2023/04/05 09:07:19;;;;;;;10.70;7.22;;;8.70;99.70;;;;;;5068591;28;20546;-80
2023/04/05 09:09:52;;;;;;;11.68;6.68;;;8.70;99.90;;;;;;5097276;28;20044;-80
2023/04/05 09:12:21;;;;;;;11.82;7.05;;;8.80;99.90;;;;;;5077451;28;20039;-79
2023/04/05 09:14:48;;;;;;;7.18;4.80;;;8.90;99.90;;;;;;5094232;28;20051;-79
2023/04/05 09:17:17;;;;;;;9.55;5.43;;;9.00;98.70;;;;;;5096168;28;20043;-81
2023/04/05 09:19:43;;;;;;;11.23;5.78;;;9.00;97.00;;;;;;5051581;28;20074;-80
2023/04/05 09:22:10;;;;;;;9.27;5.38;;;9.00;96.30;;;;;;5072685;28;20124;-80
2023/04/05 09:24:40;;;;;;;7.32;5.07;;;9.10;95.90;;;;;;5074223;28;20360;-80
2023/04/05 09:27:14;;;;;;;8.13;5.68;;;9.10;94.60;;;;;;5101229;28;20047;-80
2023/04/05 09:29:42;;;;;;;9.82;6.22;;;9.20;93.90;;;;;;5095404;28;20108;-80
2023/04/05 09:32:09;;;;;;;8.57;5.38;;;9.10;93.90;;;;;;5088358;28;20046;-79
2023/04/05 09:34:36;;;;;;;9.68;5.40;;;9.20;94.10;;;;;;5088299;28;20131;-80
2023/04/05 09:37:11;;;;;;;10.75;5.22;;;9.20;93.80;;;;;;5064592;28;20555;-79
2023/04/05 09:39:37;;;;;;;10.90;6.25;;;9.50;93.30;;;;;;5074927;28;20051;-80
2023/04/05 09:42:08;;;;;;;9.63;6.60;;;9.70;93.10;;;;;;5057234;28;20040;-80
2023/04/05 09:44:52;;;;;;;10.70;5.88;;;9.90;93.10;;;;;;5089238;28;20075;-80
2023/04/05 09:47:21;;;;;;;8.05;5.03;;;10.20;92.60;;;;;;5084790;28;20408;-80
2023/04/05 09:49:46;;;;;;;10.70;6.38;;;10.40;91.50;;;;;;5086362;28;20042;-82
2023/04/05 09:52:18;;;;;;;8.35;5.63;;;10.60;91.50;;;;;;5069303;28;20032;-79
2023/04/05 09:54:44;;;;;;;8.85;5.15;;;10.80;91.40;;;;;;5076900;28;20158;-80
2023/04/05 09:57:10;;;;;;;8.60;5.72;;;10.90;90.10;;;;;;5039227;28;20131;-81
2023/04/05 09:59:38;;;;;;;7.32;5.50;;;10.90;88.00;;;;;;5051100;28;20115;-80
2023/04/05 10:02:03;;;;;;;7.03;4.90;;;11.00;88.60;;;;;;5075003;28;20036;-80
2023/04/05 10:04:40;;;;;;;9.95;6.03;;;11.10;86.60;;;;;;5074753;28;20511;-79
2023/04/05 10:07:07;;;;;;;17.77;5.90;;;11.10;82.90;;;;;;5087032;28;20036;-80
2023/04/05 10:09:33;;;;;;;8.85;5.50;;;10.90;81.60;;;;;;5089166;28;20043;-80
2023/04/05 10:12:00;;;;;;;7.88;4.85;;;10.80;83.40;;;;;;5055517;28;20045;-80
2023/04/05 10:14:25;;;;;;;9.20;5.90;;;10.70;81.60;;;;;;5056917;28;20447;-80
2023/04/05 10:17:06;;;;;;;8.10;5.22;;;10.60;82.80;;;;;;5070297;28;20039;-81
2023/04/05 10:19:36;;;;;;;8.63;5.18;;;10.80;83.80;;;;;;5092866;28;20065;-79
2023/04/05 10:22:05;;;;;;;7.22;4.80;;;11.10;82.60;;;;;;5076995;28;20044;-81
2023/04/05 10:24:39;;;;;;;8.23;5.03;;;11.20;80.80;;;;;;5094592;28;20446;-81
2023/04/05 10:27:26;;;;;;;8.95;4.80;;;11.30;80.70;;;;;;5077583;28;20063;-81
2023/04/05 10:30:05;;;;;;;9.50;5.80;;;11.30;80.80;;;;;;5092789;28;20048;-81
2023/04/05 10:33:01;;;;;;;7.15;4.63;;;11.50;79.80;;;;;;5070185;28;20044;-82
2023/04/05 10:35:49;;;;;;;7.75;5.10;;;11.90;76.80;;;;;;5077273;28;20078;-82
2023/04/05 10:38:29;;;;;;;7.60;4.68;;;12.00;75.80;;;;;;5059801;28;20046;-82
2023/04/05 10:41:04;;;;;;;7.28;4.82;;;11.90;75.10;;;;;;5077651;28;20043;-82
2023/04/05 10:43:33;;;;;;;11.23;5.20;;;11.80;75.20;;;;;;5093434;28;20083;-81
2023/04/05 10:46:01;;;;;;;10.15;5.60;;;11.70;75.40;;;;;;5114997;28;20062;-81
2023/04/05 10:48:33;;;;;;;8.63;5.35;;;11.50;75.90;;;;;;5073892;28;20039;-83
2023/04/05 10:50:59;;;;;;;6.97;4.78;;;11.50;76.90;;;;;;5080534;28;20062;-82
2023/04/05 10:53:26;;;;;;;8.82;5.18;;;11.50;74.40;;;;;;5063560;28;20045;-81
2023/04/05 10:55:54;;;;;;;17.80;5.65;;;11.40;75.80;;;;;;5060289;28;20127;-79
2023/04/05 10:58:21;;;;;;;8.38;5.30;;;11.50;76.70;;;;;;5074914;28;20046;-80
2023/04/05 11:00:48;;;;;;;6.30;4.63;;;11.60;74.50;;;;;;5080474;28;20039;-79
2023/04/05 11:03:48;;;;;;;7.10;4.93;;;11.70;74.70;;;;;;5063930;28;20095;-81
2023/04/05 11:06:21;;;;;;;6.70;4.53;;;11.90;72.10;;;;;;5097373;28;20047;-79
2023/04/05 11:08:50;;;;;;;7.40;4.50;;;12.00;72.90;;;;;;5080243;28;20046;-79
2023/04/05 11:11:17;;;;;;;7.47;4.35;;;11.90;70.90;;;;;;5092292;28;20498;-79
2023/04/05 11:13:56;;;;;;;8.50;4.78;;;11.80;70.80;;;;;;5094957;28;20395;-79
2023/04/05 11:16:23;;;;;;;7.70;4.60;;;11.70;68.90;;;;;;5095482;28;20043;-79
2023/04/05 11:18:50;;;;;;;8.95;4.50;;;11.50;69.70;;;;;;5079619;28;20048;-79
2023/04/05 11:21:24;;;;;;;7.63;5.05;;;11.50;68.50;;;;;;5079362;28;20088;-79
2023/04/05 11:24:05;;;;;;;6.88;4.47;;;11.40;68.10;;;;;;5079942;28;20491;-79
2023/04/05 11:26:55;;;;;;;6.70;4.53;;;11.30;71.20;;;;;;5078357;28;20470;-78
2023/04/05 11:29:47;;;;;;;7.13;4.32;;;11.50;70.70;;;;;;5067450;28;20048;-78
2023/04/05 11:32:12;;;;;;;6.80;4.65;;;11.70;68.80;;;;;;5079373;28;20043;-79
2023/04/05 11:34:41;;;;;;;8.18;5.03;;;11.90;70.40;;;;;;5079151;28;20051;-80
2023/04/05 11:37:07;;;;;;;6.90;4.30;;;12.20;69.80;;;;;;5095939;28;20092;-80
2023/04/05 11:39:33;;;;;;;6.40;3.85;;;12.30;70.00;;;;;;5057499;28;20040;-79
2023/04/05 11:42:04;;;;;;;7.13;4.30;;;12.50;70.00;;;;;;5093037;28;20124;-79
2023/04/05 11:44:43;;;;;;;6.72;4.35;;;12.70;68.10;;;;;;5076276;28;20040;-80
2023/04/05 11:47:10;;;;;;;7.53;4.10;;;12.80;67.20;;;;;;5075483;28;20036;-80
2023/04/05 11:49:37;;;;;;;8.82;5.10;;;12.70;66.20;;;;;;5061546;28;20548;-79
2023/04/05 11:52:10;;;;;;;11.00;5.38;;;12.70;67.70;;;;;;5077622;28;20487;-79
2023/04/05 11:54:36;;;;;;;6.82;4.85;;;12.60;67.60;;;;;;5091380;28;20084;-79
2023/04/05 11:57:02;;;;;;;6.38;4.47;;;12.50;68.10;;;;;;5078781;28;20391;-79
2023/04/05 11:59:33;;;;;;;7.70;4.22;;;12.50;69.20;;;;;;5082450;28;20031;-78
2023/04/05 12:02:00;;;;;;;6.72;4.28;;;12.70;69.50;;;;;;5083742;28;20066;-78
2023/04/05 12:04:25;;;;;;;7.13;3.58;;;12.90;67.20;;;;;;5074157;28;20510;-79
2023/04/05 12:07:17;;;;;;;6.90;4.25;;;12.90;67.10;;;;;;5065501;28;20046;-78
2023/04/05 12:10:12;;;;;;;5.93;4.25;;;13.00;65.60;;;;;;5077505;28;20066;-79
2023/04/05 12:12:39;;;;;;;6.20;4.53;;;13.10;65.70;;;;;;5078560;28;20099;-78
2023/04/05 12:15:07;;;;;;;8.02;4.93;;;13.20;65.20;;;;;;5096026;28;20031;-78
2023/04/05 12:17:44;;;;;;;6.53;4.25;;;13.10;64.60;;;;;;5078655;28;20039;-77
2023/04/05 12:20:15;;;;;;;7.20;4.63;;;13.00;65.30;;;;;;5095161;28;20036;-78
2023/04/05 12:22:43;;;;;;;7.70;4.78;;;12.90;64.90;;;;;;5095424;28;20168;-79
2023/04/05 12:25:09;;;;;;;6.65;4.75;;;12.80;65.00;;;;;;5090919;28;20040;-79
2023/04/05 12:27:36;;;;;;;7.28;4.25;;;12.80;67.00;;;;;;5075281;28;20396;-79
2023/04/05 12:30:16;;;;;;;7.63;4.18;;;12.80;65.90;;;;;;5058154;28;20050;-78
2023/04/05 12:32:50;;;;;;;5.93;3.88;;;12.90;65.60;;;;;;5067154;28;20138;-78
2023/04/05 12:35:31;;;;;;;6.10;4.68;;;13.00;65.70;;;;;;5074938;28;20052;-78
2023/04/05 12:37:58;;;;;;;6.13;4.65;;;13.10;67.70;;;;;;5084243;28;20039;-79
2023/04/05 12:40:24;;;;;;;6.25;4.15;;;13.30;67.90;;;;;;5077903;28;20496;-79
2023/04/05 12:42:50;;;;;;;7.57;4.70;;;13.50;66.00;;;;;;5058439;28;20412;-80
2023/04/05 12:45:19;;;;;;;5.72;4.10;;;13.50;63.60;;;;;;5058282;28;20040;-79
2023/04/05 12:47:49;;;;;;;6.15;4.30;;;13.60;63.50;;;;;;5072763;28;20051;-81
2023/04/05 12:50:17;;;;;;;7.78;4.10;;;13.70;63.10;;;;;;5074599;28;20597;-80
2023/04/05 12:52:55;;;;;;;9.00;4.88;;;13.80;62.80;;;;;;5058273;28;20480;-78
2023/04/05 12:55:22;;;;;;;7.75;4.40;;;13.90;62.90;;;;;;5058057;28;20043;-81